createdAt,value
2023-05-03T00:01:00.408Z,29.11
2023-05-03T00:02:02.654Z,29.11
2023-05-03T00:03:07.124Z,29.10
2023-05-03T00:04:09.294Z,29.11
2023-05-03T00:05:12.929Z,29.09
2023-05-03T00:06:16.352Z,29.12
2023-05-03T00:07:18.414Z,29.09
2023-05-03T00:08:21.844Z,29.10
2023-05-03T00:09:24.096Z,29.07
2023-05-03T00:10:26.252Z,29.08
2023-05-03T00:11:28.146Z,29.07
2023-05-03T00:12:30.485Z,29.08
2023-05-03T00:13:32.499Z,29.07
2023-05-03T00:14:34.391Z,29.07
2023-05-03T00:15:36.346Z,29.06
2023-05-03T00:16:38.393Z,29.07
2023-05-03T00:17:40.403Z,29.06
2023-05-03T00:18:42.556Z,29.05
2023-05-03T00:19:45.118Z,29.03
2023-05-03T00:20:47.092Z,29.02
2023-05-03T00:21:48.964Z,29.02
2023-05-03T00:22:51.753Z,29.01
2023-05-03T00:23:53.644Z,29.00
2023-05-03T00:24:56.493Z,29.01
2023-05-03T00:25:59.404Z,28.99
2023-05-03T00:27:01.687Z,28.99
2023-05-03T00:28:03.693Z,28.97
2023-05-03T00:29:05.556Z,28.97
2023-05-03T00:30:08.523Z,28.95
2023-05-03T00:31:11.404Z,28.96
2023-05-03T00:32:13.353Z,28.93
2023-05-03T00:33:16.640Z,28.94
2023-05-03T00:34:18.478Z,28.91
2023-05-03T00:35:20.667Z,28.92
2023-05-03T00:36:22.524Z,28.90
2023-05-03T00:37:25.592Z,28.91
2023-05-03T00:38:27.709Z,28.90
2023-05-03T00:39:33.923Z,28.89
2023-05-03T00:40:35.884Z,28.87
2023-05-03T00:41:39.634Z,28.87
2023-05-03T00:42:41.563Z,28.86
2023-05-03T00:43:43.503Z,28.85
2023-05-03T00:44:45.434Z,28.84
2023-05-03T00:45:47.664Z,28.84
2023-05-03T00:46:50.395Z,28.82
2023-05-03T00:47:52.767Z,28.82
2023-05-03T00:48:55.034Z,28.82
2023-05-03T00:49:57.286Z,28.82
2023-05-03T00:51:01.125Z,28.81
2023-05-03T00:52:03.759Z,28.80
2023-05-03T00:53:06.417Z,28.80
2023-05-03T00:54:09.869Z,28.78
2023-05-03T00:55:12.280Z,28.79
2023-05-03T00:56:23.488Z,28.80
2023-05-03T00:57:28.509Z,28.79
2023-05-03T00:58:33.534Z,28.77
2023-05-03T00:59:35.674Z,28.79
2023-05-03T01:00:38.220Z,28.76
2023-05-03T01:01:40.105Z,28.76
2023-05-03T01:02:42.060Z,28.77
2023-05-03T01:03:46.721Z,28.74
2023-05-03T01:04:49.206Z,28.74
2023-05-03T01:06:34.404Z,28.76
2023-05-03T01:08:13.631Z,28.74
2023-05-03T01:09:42.627Z,28.74
2023-05-03T01:11:14.382Z,28.73
2023-05-03T01:13:06.938Z,28.72
2023-05-03T01:14:37.101Z,28.69
2023-05-03T01:15:46.526Z,28.67
2023-05-03T01:16:54.626Z,28.65
2023-05-03T01:18:12.476Z,28.65
2023-05-03T01:19:29.020Z,28.64
2023-05-03T01:20:34.876Z,28.64
2023-05-03T01:21:38.314Z,28.62
2023-05-03T01:22:48.099Z,28.62
2023-05-03T01:24:14.071Z,28.64
2023-05-03T01:25:16.590Z,28.62
2023-05-03T01:26:24.587Z,28.61
2023-05-03T01:27:26.512Z,28.59
2023-05-03T01:28:28.790Z,28.61
2023-05-03T01:29:30.987Z,28.58
2023-05-03T01:30:34.522Z,28.57
2023-05-03T01:31:48.260Z,28.57
2023-05-03T01:33:05.233Z,28.57
2023-05-03T01:34:33.936Z,28.57
2023-05-03T01:35:52.722Z,28.56
2023-05-03T01:36:59.833Z,28.54
2023-05-03T01:38:03.124Z,28.53
2023-05-03T01:39:14.567Z,28.50
2023-05-03T01:40:20.972Z,28.51
2023-05-03T01:41:26.976Z,28.52
2023-05-03T01:42:30.799Z,28.49
2023-05-03T01:43:36.956Z,28.50
2023-05-03T01:44:40.429Z,28.50
2023-05-03T01:45:43.804Z,28.46
2023-05-03T01:46:46.935Z,28.47
2023-05-03T01:47:49.479Z,28.48
2023-05-03T01:48:51.418Z,28.46
2023-05-03T01:49:53.368Z,28.46
2023-05-03T01:50:55.469Z,28.45
2023-05-03T01:51:57.347Z,28.44
2023-05-03T01:52:59.192Z,28.44
2023-05-03T01:54:01.193Z,28.43
2023-05-03T01:55:03.444Z,28.44
2023-05-03T01:56:06.249Z,28.43
2023-05-03T01:57:08.091Z,28.43
2023-05-03T01:58:10.407Z,28.41
2023-05-03T01:59:12.588Z,28.42
2023-05-03T02:00:15.170Z,28.42
2023-05-03T02:01:17.042Z,28.41
2023-05-03T02:02:18.999Z,28.41
2023-05-03T02:03:21.259Z,28.40
2023-05-03T02:04:23.238Z,28.41
2023-05-03T02:05:26.099Z,28.41
2023-05-03T02:06:28.197Z,28.41
2023-05-03T02:07:30.248Z,28.40
2023-05-03T02:08:32.211Z,28.41
2023-05-03T02:09:34.270Z,28.41
2023-05-03T02:10:36.211Z,28.39
2023-05-03T02:11:38.566Z,28.40
2023-05-03T02:12:45.292Z,28.41
2023-05-03T02:13:52.760Z,28.41
2023-05-03T02:14:54.818Z,28.38
2023-05-03T02:15:56.797Z,28.40
2023-05-03T02:16:59.245Z,28.38
2023-05-03T02:18:02.703Z,28.39
2023-05-03T02:19:05.741Z,28.37
2023-05-03T02:20:11.202Z,28.36
2023-05-03T02:21:13.383Z,28.38
2023-05-03T02:22:15.304Z,28.37
2023-05-03T02:23:17.487Z,28.37
2023-05-03T02:24:19.991Z,28.37
2023-05-03T02:25:22.058Z,28.36
2023-05-03T02:26:23.954Z,28.34
2023-05-03T02:27:26.132Z,28.34
2023-05-03T02:28:28.184Z,28.33
2023-05-03T02:29:31.189Z,28.33
2023-05-03T02:30:35.192Z,28.30
2023-05-03T02:31:37.303Z,28.34
2023-05-03T02:32:39.254Z,28.32
2023-05-03T02:33:41.402Z,28.31
2023-05-03T02:34:48.068Z,28.29
2023-05-03T02:35:50.023Z,28.29
2023-05-03T02:36:51.936Z,28.28
2023-05-03T02:37:53.833Z,28.27
2023-05-03T02:38:55.961Z,28.26
2023-05-03T02:39:58.135Z,28.26
2023-05-03T02:41:00.112Z,28.26
2023-05-03T02:42:02.797Z,28.23
2023-05-03T02:43:05.222Z,28.25
2023-05-03T02:44:07.053Z,28.22
2023-05-03T02:45:09.568Z,28.22
2023-05-03T02:46:11.490Z,28.21
2023-05-03T02:47:13.755Z,28.21
2023-05-03T02:48:16.567Z,28.20
2023-05-03T02:49:18.701Z,28.20
2023-05-03T02:50:20.627Z,28.20
2023-05-03T02:51:22.628Z,28.19
2023-05-03T02:52:24.569Z,28.19
2023-05-03T02:53:26.731Z,28.20
2023-05-03T02:54:28.747Z,28.19
2023-05-03T02:55:30.645Z,28.19
2023-05-03T02:56:33.515Z,28.19
2023-05-03T02:57:36.053Z,28.18
2023-05-03T02:58:38.064Z,28.18
2023-05-03T02:59:40.079Z,28.17
2023-05-03T03:00:42.249Z,28.16
2023-05-03T03:01:45.897Z,28.17
2023-05-03T03:02:48.030Z,28.17
2023-05-03T03:03:50.358Z,28.15
2023-05-03T03:04:52.653Z,28.17
2023-05-03T03:05:54.632Z,28.17
2023-05-03T03:06:57.092Z,28.16
2023-05-03T03:07:59.084Z,28.16
2023-05-03T03:09:01.131Z,28.16
2023-05-03T03:10:03.226Z,28.15
2023-05-03T03:11:06.887Z,28.14
2023-05-03T03:12:08.945Z,28.14
2023-05-03T03:13:10.878Z,28.12
2023-05-03T03:14:12.759Z,28.12
2023-05-03T03:15:14.670Z,28.11
2023-05-03T03:16:16.805Z,28.12
2023-05-03T03:17:18.774Z,28.11
2023-05-03T03:18:21.038Z,28.10
2023-05-03T03:19:23.011Z,28.11
2023-05-03T03:20:24.987Z,28.11
2023-05-03T03:21:29.484Z,28.09
2023-05-03T03:22:31.524Z,28.07
2023-05-03T03:23:33.576Z,28.09
2023-05-03T03:24:35.883Z,28.07
2023-05-03T03:25:38.126Z,28.06
2023-05-03T03:26:40.049Z,28.06
2023-05-03T03:27:42.085Z,28.06
2023-05-03T03:28:44.253Z,28.05
2023-05-03T03:29:46.200Z,28.05
2023-05-03T03:30:48.230Z,28.03
2023-05-03T03:31:50.178Z,28.01
2023-05-03T03:32:53.091Z,28.02
2023-05-03T03:33:55.190Z,28.00
2023-05-03T03:34:57.096Z,27.99
2023-05-03T03:35:58.994Z,27.99
2023-05-03T03:37:01.238Z,27.96
2023-05-03T03:38:03.605Z,27.97
2023-05-03T03:39:06.581Z,27.97
2023-05-03T03:40:09.933Z,27.95
2023-05-03T03:41:12.049Z,27.96
2023-05-03T03:42:15.446Z,27.95
2023-05-03T03:43:17.279Z,27.95
2023-05-03T03:44:19.144Z,27.93
2023-05-03T03:45:21.185Z,27.92
2023-05-03T03:46:23.122Z,27.92
2023-05-03T03:47:25.224Z,27.91
2023-05-03T03:48:27.542Z,27.90
2023-05-03T03:49:30.340Z,27.90
2023-05-03T03:50:32.590Z,27.89
2023-05-03T03:51:35.008Z,27.88
2023-05-03T03:52:37.062Z,27.88
2023-05-03T03:53:39.107Z,27.86
2023-05-03T03:54:41.010Z,27.86
2023-05-03T03:55:43.135Z,27.85
2023-05-03T03:56:45.053Z,27.83
2023-05-03T03:57:46.995Z,27.83
2023-05-03T03:58:48.884Z,27.82
2023-05-03T03:59:51.263Z,27.83
2023-05-03T04:00:53.336Z,27.82
2023-05-03T04:01:55.203Z,27.81
2023-05-03T04:02:57.242Z,27.81
2023-05-03T04:03:59.539Z,27.80
2023-05-03T04:05:01.521Z,27.79
2023-05-03T04:06:03.440Z,27.80
2023-05-03T04:07:05.529Z,27.79
2023-05-03T04:08:07.381Z,27.79
2023-05-03T04:09:10.401Z,27.80
2023-05-03T04:10:12.272Z,27.79
2023-05-03T04:11:14.264Z,27.79
2023-05-03T04:12:16.113Z,27.80
2023-05-03T04:13:18.030Z,27.81
2023-05-03T04:14:20.153Z,27.81
2023-05-03T04:15:22.417Z,27.81
2023-05-03T04:16:24.382Z,27.83
2023-05-03T04:17:26.434Z,27.83
2023-05-03T04:18:28.312Z,27.83
2023-05-03T04:19:30.593Z,27.83
2023-05-03T04:20:34.106Z,27.84
2023-05-03T04:21:36.256Z,27.84
2023-05-03T04:22:40.097Z,27.84
2023-05-03T04:23:42.077Z,27.84
2023-05-03T04:24:43.995Z,27.85
2023-05-03T04:25:48.586Z,27.86
2023-05-03T04:26:51.881Z,27.86
2023-05-03T04:27:53.892Z,27.86
2023-05-03T04:28:55.847Z,27.87
2023-05-03T04:29:58.479Z,27.88
2023-05-03T04:31:00.366Z,27.90
2023-05-03T04:32:02.409Z,27.88
2023-05-03T04:33:04.587Z,27.88
2023-05-03T04:34:07.599Z,27.90
2023-05-03T04:35:12.410Z,27.91
2023-05-03T04:36:16.062Z,27.93
2023-05-03T04:37:22.716Z,27.91
2023-05-03T04:38:24.564Z,27.93
2023-05-03T04:39:26.534Z,27.92
2023-05-03T04:40:28.756Z,27.93
2023-05-03T04:41:30.873Z,27.94
2023-05-03T04:42:33.248Z,27.94
2023-05-03T04:43:35.232Z,27.94
2023-05-03T04:44:37.077Z,27.96
2023-05-03T04:45:39.853Z,27.95
2023-05-03T04:46:41.928Z,27.95
2023-05-03T04:47:43.900Z,27.96
2023-05-03T04:48:46.381Z,27.97
2023-05-03T04:49:48.401Z,27.96
2023-05-03T04:50:52.102Z,27.98
2023-05-03T04:51:55.214Z,27.96
2023-05-03T04:52:59.336Z,27.98
2023-05-03T04:54:01.955Z,27.99
2023-05-03T04:55:05.564Z,27.98
2023-05-03T04:56:07.966Z,27.97
2023-05-03T04:57:10.435Z,27.97
2023-05-03T04:58:12.406Z,27.98
2023-05-03T04:59:14.240Z,27.99
2023-05-03T05:00:16.548Z,27.98
2023-05-03T05:01:18.879Z,27.98
2023-05-03T05:02:21.668Z,27.98
2023-05-03T05:03:23.846Z,27.98
2023-05-03T05:04:26.180Z,27.97
2023-05-03T05:05:28.038Z,27.97
2023-05-03T05:06:31.987Z,27.96
2023-05-03T05:07:34.360Z,27.96
2023-05-03T05:08:36.253Z,27.96
2023-05-03T05:09:38.340Z,27.96
2023-05-03T05:10:43.553Z,27.97
2023-05-03T05:11:45.792Z,27.96
2023-05-03T05:12:47.747Z,27.95
2023-05-03T05:13:49.713Z,27.96
2023-05-03T05:14:51.544Z,27.96
2023-05-03T05:15:53.412Z,27.96
2023-05-03T05:16:55.335Z,27.95
2023-05-03T05:17:57.393Z,27.96
2023-05-03T05:18:59.480Z,27.95
2023-05-03T05:20:01.704Z,27.95
2023-05-03T05:21:04.229Z,27.94
2023-05-03T05:22:06.139Z,27.95
2023-05-03T05:23:07.962Z,27.95
2023-05-03T05:24:09.941Z,27.94
2023-05-03T05:25:11.884Z,27.93
2023-05-03T05:26:13.762Z,27.94
2023-05-03T05:27:15.968Z,27.94
2023-05-03T05:28:17.807Z,27.94
2023-05-03T05:29:19.798Z,27.95
2023-05-03T05:30:23.260Z,27.94
2023-05-03T05:31:25.436Z,27.94
2023-05-03T05:32:27.280Z,27.95
2023-05-03T05:33:29.249Z,27.94
2023-05-03T05:34:42.185Z,27.94
2023-05-03T05:35:48.698Z,27.95
2023-05-03T05:36:52.110Z,27.94
2023-05-03T05:37:54.023Z,27.94
2023-05-03T05:38:55.950Z,27.96
2023-05-03T05:39:57.848Z,27.95
2023-05-03T05:40:59.774Z,27.93
2023-05-03T05:42:01.888Z,27.94
2023-05-03T05:43:03.733Z,27.94
2023-05-03T05:44:05.863Z,27.94
2023-05-03T05:45:08.441Z,27.95
2023-05-03T05:46:10.674Z,27.95
2023-05-03T05:47:12.611Z,27.95
2023-05-03T05:48:15.100Z,27.95
2023-05-03T05:49:18.222Z,27.95
2023-05-03T05:50:20.545Z,27.95
2023-05-03T05:51:22.778Z,27.96
2023-05-03T05:52:24.743Z,27.97
2023-05-03T05:53:26.745Z,27.97
2023-05-03T05:54:29.343Z,27.97
2023-05-03T05:55:32.276Z,27.98
2023-05-03T05:56:34.185Z,27.97
2023-05-03T05:57:36.034Z,27.98
2023-05-03T05:58:38.477Z,27.98
2023-05-03T05:59:40.916Z,27.98
2023-05-03T06:00:43.010Z,28.00
2023-05-03T06:01:46.192Z,27.98
2023-05-03T06:02:48.924Z,27.99
2023-05-03T06:03:50.967Z,28.01
2023-05-03T06:04:52.956Z,28.01
2023-05-03T06:05:54.920Z,28.00
2023-05-03T06:06:56.854Z,28.02
2023-05-03T06:07:58.736Z,28.04
2023-05-03T06:09:04.699Z,28.05
2023-05-03T06:10:12.032Z,28.07
2023-05-03T06:11:15.040Z,28.06
2023-05-03T06:12:16.910Z,28.07
2023-05-03T06:13:18.995Z,28.06
2023-05-03T06:14:20.927Z,28.07
2023-05-03T06:15:22.892Z,28.07
2023-05-03T06:16:25.357Z,28.07
2023-05-03T06:17:27.621Z,28.09
2023-05-03T06:18:29.643Z,28.08
2023-05-03T06:19:31.574Z,28.08
2023-05-03T06:20:33.568Z,28.10
2023-05-03T06:21:35.517Z,28.10
2023-05-03T06:22:37.929Z,28.11
2023-05-03T06:23:40.282Z,28.11
2023-05-03T06:24:42.136Z,28.12
2023-05-03T06:25:47.528Z,28.12
2023-05-03T06:26:49.403Z,28.10
2023-05-03T06:27:51.430Z,28.13
2023-05-03T06:28:53.284Z,28.13
2023-05-03T06:29:55.164Z,28.14
2023-05-03T06:30:57.138Z,28.13
2023-05-03T06:31:59.048Z,28.14
2023-05-03T06:33:00.978Z,28.15
2023-05-03T06:34:02.951Z,28.14
2023-05-03T06:35:05.427Z,28.16
2023-05-03T06:36:08.132Z,28.17
2023-05-03T06:37:10.094Z,28.18
2023-05-03T06:38:12.136Z,28.20
2023-05-03T06:39:14.245Z,28.20
2023-05-03T06:40:16.281Z,28.20
2023-05-03T06:41:18.128Z,28.21
2023-05-03T06:42:20.070Z,28.21
2023-05-03T06:43:22.302Z,28.22
2023-05-03T06:44:24.224Z,28.24
2023-05-03T06:45:26.384Z,28.25
2023-05-03T06:46:28.680Z,28.25
2023-05-03T06:47:30.723Z,28.28
2023-05-03T06:48:32.729Z,28.29
2023-05-03T06:49:34.732Z,28.27
2023-05-03T06:50:36.834Z,28.29
2023-05-03T06:51:38.746Z,28.29
2023-05-03T06:52:41.326Z,28.30
2023-05-03T06:53:43.333Z,28.31
2023-05-03T06:54:45.460Z,28.31
2023-05-03T06:55:47.331Z,28.33
2023-05-03T06:56:49.222Z,28.33
2023-05-03T06:57:52.460Z,28.36
2023-05-03T06:58:54.593Z,28.34
2023-05-03T06:59:56.603Z,28.37
2023-05-03T07:00:58.596Z,28.37
2023-05-03T07:02:00.469Z,28.36
2023-05-03T07:03:02.562Z,28.36
2023-05-03T07:04:04.917Z,28.35
2023-05-03T07:05:07.621Z,28.36
2023-05-03T07:06:09.597Z,28.35
2023-05-03T07:07:11.545Z,28.36
2023-05-03T07:08:13.489Z,28.34
2023-05-03T07:09:15.517Z,28.35
2023-05-03T07:10:17.577Z,28.35
2023-05-03T07:11:24.402Z,28.34
2023-05-03T07:12:28.415Z,28.35
2023-05-03T07:13:30.793Z,28.36
2023-05-03T07:14:32.696Z,28.34
2023-05-03T07:15:34.514Z,28.36
2023-05-03T07:16:36.398Z,28.35
2023-05-03T07:17:38.433Z,28.34
2023-05-03T07:18:40.681Z,28.37
2023-05-03T07:19:42.519Z,28.37
2023-05-03T07:20:44.398Z,28.35
2023-05-03T07:21:46.207Z,28.36
2023-05-03T07:22:48.279Z,28.38
2023-05-03T07:23:50.225Z,28.37
2023-05-03T07:24:54.775Z,28.37
2023-05-03T07:25:56.897Z,28.38
2023-05-03T07:26:59.020Z,28.37
2023-05-03T07:28:01.860Z,28.38
2023-05-03T07:29:03.869Z,28.40
2023-05-03T07:30:06.820Z,28.40
2023-05-03T07:31:08.914Z,28.41
2023-05-03T07:32:12.172Z,28.41
2023-05-03T07:33:14.162Z,28.41
2023-05-03T07:34:16.267Z,28.41
2023-05-03T07:35:19.373Z,28.43
2023-05-03T07:36:21.349Z,28.42
2023-05-03T07:37:23.388Z,28.44
2023-05-03T07:38:25.196Z,28.44
2023-05-03T07:39:26.980Z,28.44
2023-05-03T07:40:32.700Z,28.44
2023-05-03T07:41:34.597Z,28.46
2023-05-03T07:42:36.716Z,28.46
2023-05-03T07:43:38.638Z,28.47
2023-05-03T07:44:41.093Z,28.47
2023-05-03T07:45:42.996Z,28.49
2023-05-03T07:46:44.897Z,28.50
2023-05-03T07:47:46.994Z,28.51
2023-05-03T07:48:49.456Z,28.50
2023-05-03T07:49:51.441Z,28.51
2023-05-03T07:50:53.326Z,28.49
2023-05-03T07:51:55.144Z,28.53
2023-05-03T07:52:57.507Z,28.52
2023-05-03T07:53:59.376Z,28.54
2023-05-03T07:55:03.346Z,28.54
2023-05-03T07:56:05.366Z,28.54
2023-05-03T07:57:07.774Z,28.55
2023-05-03T07:58:09.606Z,28.54
2023-05-03T07:59:11.417Z,28.55
2023-05-03T08:00:14.455Z,28.57
2023-05-03T08:01:16.296Z,28.56
2023-05-03T08:02:18.336Z,28.58
2023-05-03T08:03:20.479Z,28.57
2023-05-03T08:04:24.538Z,28.58
2023-05-03T08:05:26.771Z,28.59
2023-05-03T08:06:29.414Z,28.59
2023-05-03T08:07:32.339Z,28.60
2023-05-03T08:08:35.848Z,28.61
2023-05-03T08:09:37.740Z,28.60
2023-05-03T08:10:39.691Z,28.60
2023-05-03T08:11:43.917Z,28.62
2023-05-03T08:12:46.611Z,28.63
2023-05-03T08:13:48.485Z,28.63
2023-05-03T08:14:52.485Z,28.64
2023-05-03T08:15:54.568Z,28.64
2023-05-03T08:16:56.539Z,28.65
2023-05-03T08:17:58.502Z,28.65
2023-05-03T08:19:00.444Z,28.67
2023-05-03T08:20:02.921Z,28.66
2023-05-03T08:21:06.334Z,28.68
2023-05-03T08:22:11.035Z,28.67
2023-05-03T08:23:13.435Z,28.69
2023-05-03T08:24:16.111Z,28.69
2023-05-03T08:25:19.022Z,28.70
2023-05-03T08:26:22.251Z,28.70
2023-05-03T08:27:26.060Z,28.71
2023-05-03T08:28:27.971Z,28.71
2023-05-03T08:29:29.806Z,28.73
2023-05-03T08:30:32.081Z,28.73
2023-05-03T08:31:35.066Z,28.74
2023-05-03T08:32:36.988Z,28.75
2023-05-03T08:33:39.469Z,28.77
2023-05-03T08:34:41.432Z,28.78
2023-05-03T08:35:43.419Z,28.77
2023-05-03T08:36:45.514Z,28.79
2023-05-03T08:37:47.626Z,28.79
2023-05-03T08:38:50.602Z,28.80
2023-05-03T08:39:52.533Z,28.81
2023-05-03T08:40:59.398Z,28.82
2023-05-03T08:42:06.964Z,28.83
2023-05-03T08:43:10.459Z,28.83
2023-05-03T08:44:20.385Z,28.84
2023-05-03T08:45:22.920Z,28.84
2023-05-03T08:46:25.961Z,28.86
2023-05-03T08:47:28.019Z,28.85
2023-05-03T08:48:31.184Z,28.87
2023-05-03T08:49:35.384Z,28.89
2023-05-03T08:50:42.264Z,28.90
2023-05-03T08:51:49.803Z,28.91
2023-05-03T08:52:51.874Z,28.92
2023-05-03T08:53:53.768Z,28.92
2023-05-03T08:54:55.676Z,28.93
2023-05-03T08:55:57.600Z,28.95
2023-05-03T08:56:59.453Z,28.95
2023-05-03T08:58:01.816Z,28.97
2023-05-03T08:59:09.142Z,28.96
2023-05-03T09:00:12.960Z,28.96
2023-05-03T09:01:15.768Z,28.99
2023-05-03T09:02:18.160Z,28.99
2023-05-03T09:03:20.049Z,28.99
2023-05-03T09:04:34.730Z,29.04
2023-05-03T09:05:40.311Z,29.02
2023-05-03T09:06:42.163Z,29.02
2023-05-03T09:08:11.128Z,29.07
2023-05-03T09:09:14.302Z,29.07
2023-05-03T09:10:25.311Z,29.07
2023-05-03T09:11:32.839Z,29.07
2023-05-03T09:12:35.939Z,29.08
2023-05-03T09:13:37.768Z,29.06
2023-05-03T09:14:45.743Z,29.09
2023-05-03T09:15:55.018Z,29.11
2023-05-03T09:17:15.306Z,29.12
2023-05-03T09:18:20.633Z,29.12
2023-05-03T09:19:24.306Z,29.13
2023-05-03T09:20:37.169Z,29.15
2023-05-03T09:21:41.088Z,29.15
2023-05-03T09:22:54.129Z,29.17
2023-05-03T09:23:56.202Z,29.19
2023-05-03T09:25:01.649Z,29.19
2023-05-03T09:26:03.656Z,29.19
2023-05-03T09:27:19.824Z,29.22
2023-05-03T09:28:22.026Z,29.21
2023-05-03T09:29:35.996Z,29.23
2023-05-03T09:30:38.276Z,29.23
2023-05-03T09:32:05.445Z,29.27
2023-05-03T09:33:08.071Z,29.26
2023-05-03T09:34:23.143Z,29.27
2023-05-03T09:35:25.233Z,29.25
2023-05-03T09:36:27.910Z,29.27
2023-05-03T09:37:38.862Z,29.27
2023-05-03T09:38:40.955Z,29.27
2023-05-03T09:39:45.774Z,29.29
2023-05-03T09:40:48.685Z,29.29
2023-05-03T09:41:50.836Z,29.28
2023-05-03T09:43:08.586Z,29.31
2023-05-03T09:44:10.874Z,29.30
2023-05-03T09:45:24.097Z,29.32
2023-05-03T09:46:27.412Z,29.31
2023-05-03T09:47:31.962Z,29.30
2023-05-03T09:48:35.657Z,29.31
2023-05-03T09:49:38.954Z,29.32
2023-05-03T09:50:42.895Z,29.34
2023-05-03T09:51:44.833Z,29.34
2023-05-03T09:52:47.201Z,29.36
2023-05-03T09:53:49.704Z,29.36
2023-05-03T09:54:53.960Z,29.36
2023-05-03T09:55:59.565Z,29.36
2023-05-03T09:57:04.937Z,29.37
2023-05-03T09:58:08.125Z,29.38
2023-05-03T09:59:10.271Z,29.37
2023-05-03T10:00:16.695Z,29.39
2023-05-03T10:01:19.323Z,29.39
2023-05-03T10:02:21.810Z,29.39
2023-05-03T10:03:36.999Z,29.41
2023-05-03T10:04:56.930Z,29.41
2023-05-03T10:06:04.872Z,29.43
2023-05-03T10:07:13.284Z,29.45
2023-05-03T10:08:45.218Z,29.48
2023-05-03T10:09:48.258Z,29.45
2023-05-03T10:10:54.437Z,29.45
2023-05-03T10:12:01.858Z,29.48
2023-05-03T10:13:04.392Z,29.46
2023-05-03T10:14:07.676Z,29.47
2023-05-03T10:15:12.888Z,29.47
2023-05-03T10:16:23.523Z,29.48
2023-05-03T10:17:46.415Z,29.50
2023-05-03T10:19:03.361Z,29.50
2023-05-03T10:20:40.085Z,29.54
2023-05-03T10:22:05.871Z,29.54
2023-05-03T10:23:10.778Z,29.52
2023-05-03T10:24:16.121Z,29.52
2023-05-03T10:25:18.124Z,29.50
2023-05-03T10:26:20.408Z,29.52
2023-05-03T10:27:22.253Z,29.51
2023-05-03T10:28:24.161Z,29.50
2023-05-03T10:29:34.817Z,29.54
2023-05-03T10:30:38.379Z,29.53
2023-05-03T10:31:48.478Z,29.54
2023-05-03T10:32:50.698Z,29.54
2023-05-03T10:33:52.774Z,29.54
2023-05-03T10:35:19.479Z,29.58
2023-05-03T10:36:23.166Z,29.56
2023-05-03T10:37:28.239Z,29.57
2023-05-03T10:38:30.090Z,29.58
2023-05-03T10:39:32.233Z,29.58
2023-05-03T10:40:43.505Z,29.60
2023-05-03T10:42:03.579Z,29.61
2023-05-03T10:43:05.556Z,29.61
2023-05-03T10:44:35.087Z,29.64
2023-05-03T10:45:39.239Z,29.63
2023-05-03T10:46:44.334Z,29.62
2023-05-03T10:48:12.250Z,29.67
2023-05-03T10:49:20.323Z,29.66
2023-05-03T10:50:26.391Z,29.66
2023-05-03T10:51:36.759Z,29.64
2023-05-03T10:52:39.089Z,29.65
2023-05-03T10:53:43.536Z,29.64
2023-05-03T10:54:45.492Z,29.67
2023-05-03T10:56:15.362Z,29.70
2023-05-03T10:57:17.458Z,29.69
2023-05-03T10:58:19.455Z,29.66
2023-05-03T10:59:23.317Z,29.66
2023-05-03T11:00:33.958Z,29.68
2023-05-03T11:01:36.721Z,29.68
2023-05-03T11:02:58.970Z,29.69
2023-05-03T11:04:42.229Z,29.77
2023-05-03T11:05:44.921Z,29.72
2023-05-03T11:06:51.116Z,29.72
2023-05-03T11:07:53.805Z,29.72
2023-05-03T11:08:56.432Z,29.73
2023-05-03T11:09:58.274Z,29.73
2023-05-03T11:11:01.181Z,29.74
2023-05-03T11:12:08.732Z,29.77
2023-05-03T11:13:11.572Z,29.76
2023-05-03T11:14:14.021Z,29.77
2023-05-03T11:15:16.078Z,29.77
2023-05-03T11:16:18.459Z,29.77
2023-05-03T11:17:21.547Z,29.77
2023-05-03T11:18:27.905Z,29.79
2023-05-03T11:19:29.863Z,29.79
2023-05-03T11:20:31.767Z,29.82
2023-05-03T11:21:33.880Z,29.82
2023-05-03T11:22:36.582Z,29.81
2023-05-03T11:23:42.862Z,29.84
2023-05-03T11:24:44.831Z,29.84
2023-05-03T11:25:47.226Z,29.84
2023-05-03T11:26:49.213Z,29.86
2023-05-03T11:27:51.270Z,29.88
2023-05-03T11:28:54.534Z,29.88
2023-05-03T11:29:58.453Z,29.88
2023-05-03T11:31:02.073Z,29.89
2023-05-03T11:32:04.131Z,29.88
2023-05-03T11:33:06.778Z,29.89
2023-05-03T11:34:11.205Z,29.91
2023-05-03T11:35:15.217Z,29.91
2023-05-03T11:36:17.274Z,29.92
2023-05-03T11:37:19.166Z,29.92
2023-05-03T11:38:21.205Z,29.95
2023-05-03T11:39:23.042Z,29.95
2023-05-03T11:40:26.079Z,29.95
2023-05-03T11:41:28.005Z,29.95
2023-05-03T11:42:29.928Z,29.98
2023-05-03T11:43:32.561Z,30.00
2023-05-03T11:44:34.839Z,29.98
2023-05-03T11:45:44.888Z,30.00
2023-05-03T11:46:48.349Z,30.00
2023-05-03T11:47:52.028Z,30.05
2023-05-03T11:48:54.167Z,30.04
2023-05-03T11:50:00.504Z,30.06
2023-05-03T11:51:11.032Z,30.07
2023-05-03T11:52:13.528Z,30.08
2023-05-03T11:53:17.506Z,30.09
2023-05-03T11:54:26.358Z,30.08
2023-05-03T11:55:30.438Z,30.10
2023-05-03T11:56:32.351Z,30.11
2023-05-03T11:57:34.275Z,30.11
2023-05-03T11:58:36.269Z,30.12
2023-05-03T11:59:39.904Z,30.14
2023-05-03T12:00:50.140Z,30.15
2023-05-03T12:01:53.766Z,30.15
2023-05-03T12:03:00.001Z,30.16
2023-05-03T12:04:05.632Z,30.17
2023-05-03T12:05:10.368Z,30.19
2023-05-03T12:06:13.749Z,30.18
2023-05-03T12:07:19.548Z,30.18
2023-05-03T12:08:32.041Z,30.20
2023-05-03T12:09:35.948Z,30.19
2023-05-03T12:10:38.527Z,30.21
2023-05-03T12:11:43.721Z,30.20
2023-05-03T12:13:00.238Z,30.24
2023-05-03T12:14:03.427Z,30.25
2023-05-03T12:15:08.059Z,30.25
2023-05-03T12:16:14.171Z,30.27
2023-05-03T12:17:39.155Z,30.33
2023-05-03T12:19:02.724Z,30.36
2023-05-03T12:21:58.825Z,30.43
2023-05-03T12:23:10.897Z,30.42
2023-05-03T12:24:20.151Z,30.44
2023-05-03T12:25:25.981Z,30.45
2023-05-03T12:26:28.837Z,30.48
2023-05-03T12:27:32.628Z,30.48
2023-05-03T12:28:34.777Z,30.50
2023-05-03T12:29:37.075Z,30.53
2023-05-03T12:30:40.821Z,30.56
2023-05-03T12:31:44.572Z,30.56
2023-05-03T12:32:46.710Z,30.58
2023-05-03T12:34:06.593Z,30.57
2023-05-03T12:35:14.184Z,30.58
2023-05-03T12:36:19.863Z,30.60
2023-05-03T12:37:26.159Z,30.61
2023-05-03T12:38:31.100Z,30.61
2023-05-03T12:39:34.193Z,30.61
2023-05-03T12:40:36.657Z,30.63
2023-05-03T12:42:43.814Z,30.63
2023-05-03T12:43:45.919Z,30.61
2023-05-03T12:44:48.350Z,30.60
2023-05-03T12:46:04.028Z,30.61
2023-05-03T12:47:20.161Z,30.61
2023-05-03T12:48:32.567Z,30.62
2023-05-03T12:49:38.017Z,30.61
2023-05-03T12:50:44.858Z,30.60
2023-05-03T12:51:57.169Z,30.59
2023-05-03T12:53:02.965Z,30.63
2023-05-03T12:54:09.939Z,30.61
2023-05-03T12:55:13.695Z,30.60
2023-05-03T12:56:23.815Z,30.62
2023-05-03T12:57:30.262Z,30.61
2023-05-03T12:58:56.780Z,30.61
2023-05-03T13:00:02.104Z,30.62
2023-05-03T13:01:37.938Z,30.62
2023-05-03T13:03:34.614Z,30.61
2023-05-03T13:05:47.202Z,30.62
2023-05-03T13:06:57.890Z,30.63
2023-05-03T13:08:07.839Z,30.62
2023-05-03T13:09:19.044Z,30.61
2023-05-03T13:10:22.778Z,30.62
2023-05-03T13:11:25.466Z,30.59
2023-05-03T13:12:27.440Z,30.59
2023-05-03T13:13:29.810Z,30.60
2023-05-03T13:14:31.677Z,30.59
2023-05-03T13:15:36.215Z,30.58
2023-05-03T13:16:40.180Z,30.62
2023-05-03T13:17:43.526Z,30.60
2023-05-03T13:18:47.153Z,30.59
2023-05-03T13:19:51.171Z,30.60
2023-05-03T13:20:53.056Z,30.61
2023-05-03T13:21:54.858Z,30.60
2023-05-03T13:22:58.442Z,30.60
2023-05-03T13:24:00.379Z,30.61
2023-05-03T13:25:03.409Z,30.61
2023-05-03T13:26:06.958Z,30.60
2023-05-03T13:27:10.710Z,30.61
2023-05-03T13:28:12.559Z,30.61
2023-05-03T13:29:14.374Z,30.62
2023-05-03T13:30:16.634Z,30.63
2023-05-03T13:31:18.934Z,30.62
2023-05-03T13:32:20.960Z,30.61
2023-05-03T13:33:23.010Z,30.63
2023-05-03T13:34:24.869Z,30.63
2023-05-03T13:35:26.709Z,30.62
2023-05-03T13:36:29.511Z,30.63
2023-05-03T13:37:31.329Z,30.65
2023-05-03T13:38:33.864Z,30.62
2023-05-03T13:39:35.806Z,30.65
2023-05-03T13:40:37.651Z,30.65
2023-05-03T13:41:42.008Z,30.66
2023-05-03T13:42:43.972Z,30.67
2023-05-03T13:43:46.406Z,30.65
2023-05-03T13:44:48.258Z,30.68
2023-05-03T13:45:50.176Z,30.66
2023-05-03T13:46:52.821Z,30.69
2023-05-03T13:48:09.618Z,30.69
2023-05-03T13:49:16.748Z,30.71
2023-05-03T13:50:18.842Z,30.71
2023-05-03T13:51:20.726Z,30.69
2023-05-03T13:52:23.168Z,30.71
2023-05-03T13:53:25.032Z,30.71
2023-05-03T13:54:27.112Z,30.73